VY1241 / EC-MJC 7700 Squawk Report (15th of October, 2019)

Aircraft A320 Reg No. EC-MJC Age 4 years old
Model A320 Jet engines 2 First flight 06-11-15
Registered 04-12-15 Rollout 11-15 Delivered 04-12-15
Construction No. 6841 Line No. N/A Series 232(SL)
ADSHEX 345107 Airline name Vueling Airlines Owner N/A
Airfield based Barcelona~Cataluna~EC First tracked 2017-07-13 09:55:00
Time Lat Lon Altitude Heading Speed Vertical Rate
2019-10-15 10:48:29 GMT 47.165909 -1.601051 250 209 134 -704
2019-10-15 10:48:25 GMT 47.167694 -1.599678 300 209 134 -704
2019-10-15 10:48:17 GMT 47.172180 -1.596107 375 206 131 -768
2019-10-15 10:48:07 GMT 47.177811 -1.591988 500 211 130 -512
2019-10-15 10:47:57 GMT 47.183022 -1.586750 625 221 129 -960
2019-10-15 10:47:45 GMT 47.187862 -1.580341 775 223 130 -1152
2019-10-15 10:47:35 GMT 47.192276 -1.574409 925 221 130 -832
2019-10-15 10:47:26 GMT 47.197174 -1.568298 1,050 221 130 -704
2019-10-15 10:47:14 GMT 47.201935 -1.562531 1,175 220 127 -576
2019-10-15 10:47:05 GMT 47.206623 -1.556749 1,275 220 128 -640
2019-10-15 10:46:53 GMT 47.211605 -1.550622 1,400 221 133 -768
2019-10-15 10:46:42 GMT 47.216957 -1.543861 1,575 221 132 -768
2019-10-15 10:45:44 GMT 47.243584 -1.510902 2,225 220 127 -576
2019-10-15 10:44:37 GMT 47.274681 -1.471957 3,050 221 136 -576
2019-10-15 10:44:21 GMT 47.282269 -1.462238 3,075 222 136 0
2019-10-15 10:43:58 GMT 47.293625 -1.447792 3,100 221 145 -192
2019-10-15 10:43:55 GMT 47.295273 -1.445801 3,100 220 150 -64
2019-10-15 10:43:47 GMT 47.299713 -1.440376 3,100 219 161 -192
2019-10-15 10:43:35 GMT 47.306618 -1.432378 3,100 220 174 384
2019-10-15 10:43:27 GMT 47.312439 -1.424789 3,100 233 177 -64
2019-10-15 10:43:16 GMT 47.316673 -1.414560 3,100 267 180 64
2019-10-15 10:43:05 GMT 47.317837 -1.401743 3,100 280 185 0
2019-10-15 10:42:54 GMT 47.314903 -1.387869 3,075 304 201 0
2019-10-15 10:42:44 GMT 47.309780 -1.377587 3,075 311 210 0
2019-10-15 10:42:35 GMT 47.303032 -1.366108 3,075 311 219 0
2019-10-15 10:42:23 GMT 47.295956 -1.354135 3,075 312 228 0
2019-10-15 10:42:14 GMT 47.288864 -1.342186 3,100 311 237 0
2019-10-15 10:42:02 GMT 47.280350 -1.327492 3,100 311 249 0
2019-10-15 10:41:56 GMT 47.275864 -1.320145 3,100 320 263 0
2019-10-15 10:41:53 GMT 47.259430 -1.302223 3,100 323 266 0
2019-10-15 10:41:40 GMT 47.259430 -1.302223 3,100 331 288 0
2019-10-15 10:41:32 GMT 47.250893 -1.295049 3,100 331 292 -64
2019-10-15 10:41:22 GMT 47.238186 -1.284485 3,075 331 305 64
2019-10-15 10:41:18 GMT 47.233902 -1.280893 3,075 331 322 64
2019-10-15 10:41:10 GMT 47.224686 -1.273217 3,075 331 322 64
2019-10-15 10:41:01 GMT 47.211697 -1.262301 3,050 331 334 -64
2019-10-15 10:40:50 GMT 47.196892 -1.249765 3,100 330 335 -256
2019-10-15 10:40:40 GMT 47.183674 -1.238568 3,175 330 332 -832
2019-10-15 10:40:35 GMT 47.177124 -1.232941 3,275 331 328 -1472
2019-10-15 10:40:29 GMT 47.169479 -1.226486 3,375 331 330 -1728
2019-10-15 10:40:19 GMT 47.154831 -1.214127 3,775 330 332 -2432
2019-10-15 10:40:09 GMT 47.142380 -1.203484 4,500 330 341 -2816
2019-10-15 10:40:03 GMT 47.134552 -1.196754 4,325 330 341 -2432
2019-10-15 10:39:59 GMT 47.127995 -1.191101 4,500 330 340 -1984
2019-10-15 10:39:49 GMT 47.116104 -1.180687 4,975 330 341 -3264
2019-10-15 10:39:46 GMT 47.112400 -1.177439 4,975 330 341 -3264
2019-10-15 10:39:38 GMT 47.100494 -1.167023 5,475 330 340 -3136
2019-10-15 10:39:31 GMT 47.092010 -1.159903 5,750 331 341 -2368
2019-10-15 10:39:28 GMT 47.085938 -1.155006 5,900 333 344 -1344
2019-10-15 10:39:25 GMT 47.082886 -1.152649 5,950 334 346 -896
2019-10-15 10:39:16 GMT 47.070503 -1.144691 6,075 345 353 -896
2019-10-15 10:39:13 GMT 47.064789 -1.142372 6,125 349 356 -1024
2019-10-15 10:39:06 GMT 47.051929 -1.140184 6,300 359 359 -1536
2019-10-15 10:39:03 GMT 47.035400 -1.141754 6,975 6 365 -2240
2019-10-15 10:38:55 GMT 47.035400 -1.141754 6,575 7 367 -2496
2019-10-15 10:38:52 GMT 47.031006 -1.142578 6,750 7 368 -2560
2019-10-15 10:38:45 GMT 47.017685 -1.145119 7,100 7 369 -2688
2019-10-15 10:38:42 GMT 47.012650 -1.146080 7,250 7 370 -2560
2019-10-15 10:38:34 GMT 47.000244 -1.148552 7,525 7 372 -2560
2019-10-15 10:38:31 GMT 46.994019 -1.149788 7,975 7 372 -2816
2019-10-15 10:38:25 GMT 46.983627 -1.151848 8,000 7 372 -3008
2019-10-15 10:38:18 GMT 46.969906 -1.154550 8,375 7 373 -2496
2019-10-15 10:38:15 GMT 46.965775 -1.155350 8,500 7 373 -2432
2019-10-15 10:38:10 GMT 46.959522 -1.156593 9,425 7 374 -2112
2019-10-15 10:38:04 GMT 46.947830 -1.158852 9,125 7 374 -1664
2019-10-15 10:38:00 GMT 46.941601 -1.160044 9,425 7 379 -2880
2019-10-15 10:37:53 GMT 46.929871 -1.162368 9,100 7 374 -1152
2019-10-15 10:37:48 GMT 46.920513 -1.164199 9,425 7 379 -2880
2019-10-15 10:37:44 GMT 46.912582 -1.165787 9,350 7 374 -1920
2019-10-15 10:37:37 GMT 46.902786 -1.167709 9,700 7 379 -2880
2019-10-15 10:37:31 GMT 46.891045 -1.169974 9,825 7 379 -2880
2019-10-15 10:37:27 GMT 46.874100 -1.172931 12,350 6 381 -3456
2019-10-15 10:37:22 GMT 46.874100 -1.172931 10,525 5 382 -3648
2019-10-15 10:37:16 GMT 46.865208 -1.174095 12,350 359 385 -4032
2019-10-15 10:37:11 GMT 46.855591 -1.174599 11,050 358 385 -4032
2019-10-15 10:37:06 GMT 46.847427 -1.174026 12,350 352 386 -3968
2019-10-15 10:36:59 GMT 46.836136 -1.171987 11,775 351 387 -3968
2019-10-15 10:36:52 GMT 46.821125 -1.167366 12,400 348 388 -4736
2019-10-15 10:36:44 GMT 46.806839 -1.162742 13,050 348 389 -4928
2019-10-15 10:36:40 GMT 46.802353 -1.161335 13,275 348 388 -5312
2019-10-15 10:36:37 GMT 46.796173 -1.159332 13,450 348 388 -5376
2019-10-15 10:36:31 GMT 46.784950 -1.155693 14,050 348 390 -3648
2019-10-15 10:36:20 GMT 46.766235 -1.149612 14,725 348 393 -3264
2019-10-15 10:36:11 GMT 46.750736 -1.144569 15,075 348 399 -960
2019-10-15 10:36:07 GMT 46.743103 -1.142097 15,125 348 400 -1024
2019-10-15 10:36:00 GMT 46.729137 -1.137634 15,275 348 398 -1408
2019-10-15 10:35:56 GMT 46.723038 -1.135712 15,350 348 401 -2432
2019-10-15 10:35:48 GMT 46.709351 -1.131317 15,600 348 401 -2432
2019-10-15 10:35:45 GMT 46.703339 -1.129381 15,725 348 402 -2240
2019-10-15 10:35:38 GMT 46.690823 -1.125343 16,650 348 414 -3456
2019-10-15 10:35:34 GMT 46.683098 -1.122871 16,100 348 410 -2112
2019-10-15 10:35:27 GMT 46.670197 -1.118730 16,350 348 414 -2368
2019-10-15 10:35:23 GMT 46.661636 -1.115983 16,550 348 415 -2880
2019-10-15 10:35:17 GMT 46.652756 -1.113103 16,800 348 414 -3776
2019-10-15 10:35:13 GMT 46.644379 -1.110423 17,525 348 403 -3456
2019-10-15 10:35:08 GMT 46.633144 -1.106735 17,600 348 408 -4928
2019-10-15 10:35:03 GMT 46.625977 -1.104401 18,250 348 403 -3456
2019-10-15 10:34:59 GMT 46.617504 -1.101723 18,250 348 403 -3456
2019-10-15 10:34:56 GMT 46.613846 -1.100509 18,375 348 403 -3840
2019-10-15 10:34:52 GMT 46.606518 -1.098083 18,600 348 403 -3776
2019-10-15 10:34:47 GMT 46.595066 -1.094376 19,025 348 403 -3456
2019-10-15 10:34:40 GMT 46.581757 -1.089991 19,450 348 403 -3776
2019-10-15 10:34:36 GMT 46.576721 -1.088383 19,600 348 403 -3776
2019-10-15 10:34:32 GMT 46.567291 -1.085235 19,950 348 403 -3840
2019-10-15 10:34:25 GMT 46.557083 -1.081818 20,300 348 402 -3840
2019-10-15 10:34:19 GMT 46.546604 -1.078445 20,650 348 402 -3392
2019-10-15 10:34:16 GMT 46.538132 -1.075655 20,900 348 403 -3264
2019-10-15 10:34:10 GMT 46.528885 -1.072708 21,400 348 404 -3392
2019-10-15 10:34:05 GMT 46.519455 -1.069693 21,500 348 403 -3968
2019-10-15 10:33:58 GMT 46.506199 -1.065125 21,975 341 399 -3776
2019-10-15 10:33:53 GMT 46.497120 -1.060661 22,300 340 398 -3840
2019-10-15 10:33:50 GMT 46.493774 -1.058707 22,575 334 395 -4288
2019-10-15 10:33:47 GMT 46.488281 -1.054888 22,725 332 393 -4608
2019-10-15 10:33:42 GMT 46.480965 -1.048645 23,075 326 388 -4992
2019-10-15 10:33:39 GMT 46.475876 -1.043701 23,550 323 386 -4928
2019-10-15 10:33:36 GMT 46.471844 -1.039238 23,825 318 383 -4096
2019-10-15 10:33:33 GMT 46.464485 -1.030312 23,950 317 383 -3904
2019-10-15 10:33:27 GMT 46.460495 -1.024944 24,150 316 383 -3520
2019-10-15 10:33:24 GMT 46.454758 -1.016373 24,400 313 384 -3264
2019-10-15 10:33:18 GMT 46.448936 -1.007103 24,700 313 383 -4160
2019-10-15 10:33:13 GMT 46.442780 -0.997277 25,075 313 380 -4928
2019-10-15 10:33:07 GMT 46.436691 -0.987497 25,550 312 373 -5440
2019-10-15 10:33:01 GMT 46.429916 -0.976577 27,100 313 363 -3584
2019-10-15 10:32:57 GMT 46.424637 -0.968033 26,450 313 367 -4608
2019-10-15 10:32:53 GMT 46.419022 -0.959093 26,925 313 363 -3968
2019-10-15 10:32:49 GMT 46.416119 -0.954437 27,000 313 363 -3968
2019-10-15 10:32:46 GMT 46.411045 -0.946335 27,250 313 363 -3392
2019-10-15 10:32:40 GMT 46.405563 -0.937522 27,600 313 365 -2112
2019-10-15 10:32:36 GMT 46.400528 -0.929484 27,625 313 366 -1856
2019-10-15 10:32:29 GMT 46.392937 -0.917290 27,850 313 370 -1408
2019-10-15 10:32:26 GMT 46.388374 -0.910080 27,900 313 373 -1472
2019-10-15 10:32:21 GMT 46.383591 -0.902554 28,000 316 376 -1792
2019-10-15 10:32:18 GMT 46.380569 -0.898065 28,125 317 377 -1856
2019-10-15 10:32:15 GMT 46.375992 -0.891815 28,200 319 378 -1920
2019-10-15 10:32:11 GMT 46.370453 -0.884801 28,425 322 380 -2240
2019-10-15 10:32:08 GMT 46.366776 -0.880486 28,425 322 380 -2240
2019-10-15 10:32:05 GMT 46.356113 -0.869225 28,625 325 381 -2368
2019-10-15 10:32:01 GMT 46.356113 -0.869225 28,725 327 382 -2304
2019-10-15 10:31:57 GMT 46.351273 -0.864704 28,850 328 383 -2304
2019-10-15 10:31:54 GMT 46.346710 -0.860710 28,975 330 384 -2176
2019-10-15 10:31:48 GMT 46.337818 -0.853157 29,350 330 388 -2176
2019-10-15 10:31:44 GMT 46.330605 -0.846977 29,350 330 388 -2240
2019-10-15 10:31:37 GMT 46.315891 -0.834480 29,700 330 391 -2112
2019-10-15 10:31:31 GMT 46.311283 -0.830566 29,800 330 392 -2048
2019-10-15 10:31:28 GMT 46.306953 -0.826859 29,875 330 394 -1984
2019-10-15 10:31:25 GMT 46.302486 -0.823013 30,175 330 395 -1984
2019-10-15 10:31:22 GMT 46.296844 -0.818213 30,100 330 396 -1984
2019-10-15 10:31:18 GMT 46.291172 -0.813332 30,225 330 398 -2304
2019-10-15 10:31:14 GMT 46.284622 -0.807696 30,400 330 399 -2752
2019-10-15 10:31:11 GMT 46.280228 -0.803945 30,550 330 399 -2880
2019-10-15 10:31:05 GMT 46.269619 -0.794792 30,975 330 398 -3264
2019-10-15 10:31:01 GMT 46.264359 -0.790260 31,075 330 398 -3136
2019-10-15 10:30:57 GMT 46.258167 -0.784904 31,275 330 400 -2880
2019-10-15 10:30:54 GMT 46.252815 -0.780304 31,900 330 400 -2752
2019-10-15 10:30:51 GMT 46.247787 -0.775909 31,575 330 400 -2752
2019-10-15 10:30:47 GMT 46.241642 -0.770622 31,750 330 400 -2688
2019-10-15 10:30:40 GMT 46.230423 -0.760872 32,025 329 401 -2752
2019-10-15 10:30:37 GMT 46.225674 -0.756752 32,225 329 401 -2880
2019-10-15 10:30:30 GMT 46.214081 -0.746601 32,475 329 401 -2560
2019-10-15 10:30:27 GMT 46.209229 -0.742314 32,725 329 400 -2688
2019-10-15 10:30:22 GMT 46.201748 -0.735809 32,975 329 401 -2176
2019-10-15 10:30:19 GMT 46.197369 -0.732033 33,025 329 401 -2176
2019-10-15 10:30:16 GMT 46.191559 -0.726973 33,150 329 402 -2176
2019-10-15 10:30:09 GMT 46.181030 -0.717819 33,400 329 404 -2176
2019-10-15 10:30:06 GMT 46.176189 -0.713562 33,500 329 405 -2176
2019-10-15 10:30:00 GMT 46.166786 -0.705185 33,725 329 405 -2176
2019-10-15 10:29:56 GMT 46.160385 -0.699441 33,975 329 407 -2240
2019-10-15 10:29:48 GMT 46.147202 -0.687717 34,175 329 408 -2112
2019-10-15 10:29:45 GMT 46.142578 -0.683564 34,275 329 408 -2048
2019-10-15 10:29:40 GMT 46.134663 -0.676483 34,450 329 409 -1984
2019-10-15 10:29:37 GMT 46.130287 -0.672569 34,500 329 410 -1920
2019-10-15 10:29:34 GMT 46.125492 -0.668312 34,625 329 412 -1728
2019-10-15 10:29:31 GMT 46.120186 -0.663574 34,675 329 411 -1792
2019-10-15 10:29:27 GMT 46.113647 -0.657773 34,800 329 415 -1856
2019-10-15 10:29:21 GMT 46.102386 -0.647791 35,050 329 416 -2176
2019-10-15 10:29:17 GMT 46.096024 -0.642164 35,200 329 415 -2624
2019-10-15 10:29:11 GMT 46.087738 -0.634795 35,425 329 414 -2560
2019-10-15 10:29:06 GMT 46.079220 -0.627251 35,675 329 415 -1792
2019-10-15 10:29:03 GMT 46.072937 -0.621620 35,725 329 415 -1664
2019-10-15 10:29:00 GMT 46.070572 -0.619522 35,775 329 416 -1472
2019-10-15 10:28:56 GMT 46.061096 -0.611081 35,875 329 418 -384
2019-10-15 10:28:48 GMT 46.049519 -0.600815 35,950 329 418 -512
2019-10-15 10:28:45 GMT 46.044632 -0.596489 35,975 330 419 -192
2019-10-15 10:28:38 GMT 46.032898 -0.586630 36,000 331 420 -64
2019-10-15 10:28:35 GMT 46.021637 -0.577854 36,000 333 423 -64
2019-10-15 10:28:31 GMT 46.021637 -0.577854 36,000 333 421 0
2019-10-15 10:28:23 GMT 46.007080 -0.567069 36,000 333 422 0
2019-10-15 10:28:20 GMT 46.001991 -0.563255 36,000 333 423 -64
2019-10-15 10:28:13 GMT 45.991013 -0.555212 36,025 333 423 -64
2019-10-15 10:28:09 GMT 45.983963 -0.550053 36,050 334 426 0
2019-10-15 10:28:03 GMT 45.972664 -0.541695 36,025 333 423 0
2019-10-15 10:28:00 GMT 45.968307 -0.538531 36,025 333 423 -64
2019-10-15 10:27:57 GMT 45.962234 -0.534073 36,050 334 426 0
2019-10-15 10:27:54 GMT 45.956497 -0.529889 36,025 333 424 -64
2019-10-15 10:27:49 GMT 45.949200 -0.524460 36,025 333 424 -64
2019-10-15 10:27:41 GMT 45.934025 -0.513336 36,050 333 424 -128
2019-10-15 10:27:38 GMT 45.929535 -0.509993 36,050 333 425 -128
2019-10-15 10:27:30 GMT 45.914845 -0.499260 36,050 334 425 0
2019-10-15 10:27:27 GMT 45.910172 -0.495859 36,050 334 427 0
2019-10-15 10:27:19 GMT 45.895752 -0.485408 36,050 334 426 0
2019-10-15 10:27:15 GMT 45.889473 -0.480858 36,050 334 427 0
2019-10-15 10:27:07 GMT 45.869736 -0.466507 36,050 334 427 64
2019-10-15 10:26:58 GMT 45.856792 -0.457100 36,025 334 428 128
2019-10-15 10:26:51 GMT 45.847389 -0.450302 36,025 334 429 192
2019-10-15 10:26:46 GMT 45.837242 -0.442955 36,025 334 430 64
2019-10-15 10:26:42 GMT 45.830109 -0.437778 36,025 334 430 64
2019-10-15 10:26:37 GMT 45.822250 -0.432037 36,000 334 430 64
2019-10-15 10:26:34 GMT 45.816620 -0.427986 36,000 334 430 64
2019-10-15 10:26:31 GMT 45.810745 -0.423644 36,000 334 429 64
2019-10-15 10:26:24 GMT 45.798931 -0.415077 36,000 334 427 0
2019-10-15 10:26:19 GMT 45.790970 -0.409309 36,000 334 429 64
2019-10-15 10:26:16 GMT 45.784966 -0.404984 36,000 334 429 64
2019-10-15 10:26:12 GMT 45.778107 -0.399996 36,000 334 429 0
2019-10-15 10:26:08 GMT 45.769882 -0.393997 36,000 334 429 0
2019-10-15 10:26:04 GMT 45.762665 -0.388779 36,000 334 427 0
2019-10-15 10:26:00 GMT 45.757313 -0.384865 36,000 334 428 0
2019-10-15 10:25:55 GMT 45.734299 -0.368310 36,000 334 427 0
2019-10-15 10:25:49 GMT 45.734299 -0.368310 36,000 334 427 0
2019-10-15 10:25:45 GMT 45.730225 -0.365362 36,000 334 427 0
2019-10-15 10:25:40 GMT 45.721931 -0.359322 36,000 334 425 0
2019-10-15 10:25:37 GMT 45.716583 -0.355515 36,000 334 425 0
2019-10-15 10:25:34 GMT 45.711365 -0.351700 36,000 334 425 0
2019-10-15 10:25:28 GMT 45.699783 -0.343390 36,000 334 426 0
2019-10-15 10:25:24 GMT 45.692883 -0.338516 36,000 334 426 0
2019-10-15 10:25:19 GMT 45.683624 -0.331801 36,000 334 427 0
2019-10-15 10:25:16 GMT 45.678680 -0.328250 36,000 334 427 0
2019-10-15 10:25:12 GMT 45.672638 -0.323896 36,000 334 428 0
2019-10-15 10:25:08 GMT 45.665268 -0.318604 36,000 334 428 0
2019-10-15 10:25:03 GMT 45.656109 -0.311943 36,000 334 428 -64
2019-10-15 10:24:55 GMT 45.640232 -0.300407 36,000 334 429 64
2019-10-15 10:24:52 GMT 45.636520 -0.297770 36,000 334 429 0
2019-10-15 10:24:48 GMT 45.629013 -0.292277 36,000 334 429 64
2019-10-15 10:24:41 GMT 45.618122 -0.284409 36,000 334 429 64
2019-10-15 10:24:35 GMT 45.606853 -0.276237 35,975 334 430 64
2019-10-15 10:24:31 GMT 45.598896 -0.270470 36,000 334 429 0
2019-10-15 10:24:27 GMT 45.592655 -0.265869 35,975 334 429 0
2019-10-15 10:24:23 GMT 45.585480 -0.260724 36,000 333 428 0
2019-10-15 10:24:20 GMT 45.579529 -0.256393 36,000 334 427 0
2019-10-15 10:24:16 GMT 45.573166 -0.251748 36,000 334 426 0
2019-10-15 10:24:13 GMT 45.567936 -0.248016 36,000 334 425 0
2019-10-15 10:24:08 GMT 45.559185 -0.241699 36,000 334 424 0
2019-10-15 10:24:03 GMT 45.549774 -0.235067 36,000 334 421 -64
2019-10-15 10:23:59 GMT 45.543404 -0.230579 36,025 334 419 0
2019-10-15 10:23:56 GMT 45.537735 -0.226658 36,025 334 419 0
2019-10-15 10:23:52 GMT 45.530273 -0.221427 36,025 335 418 64
2019-10-15 10:23:46 GMT 45.520432 -0.214626 36,000 335 418 0
2019-10-15 10:23:43 GMT 45.514297 -0.210375 36,000 335 417 0
2019-10-15 10:23:35 GMT 45.500530 -0.200902 36,000 335 418 0
2019-10-15 10:23:32 GMT 45.497040 -0.198473 36,000 335 418 0
2019-10-15 10:23:25 GMT 45.483677 -0.189313 36,000 335 419 0
2019-10-15 10:23:22 GMT 45.479210 -0.186232 36,000 335 419 0
2019-10-15 10:23:19 GMT 45.473419 -0.182255 36,000 335 419 0
2019-10-15 10:23:15 GMT 45.465546 -0.176828 36,000 335 419 0
2019-10-15 10:23:12 GMT 45.460739 -0.173558 36,000 335 419 0
2019-10-15 10:23:08 GMT 45.454769 -0.169417 36,000 335 419 0
2019-10-15 10:23:05 GMT 45.448856 -0.165398 36,000 335 419 0
2019-10-15 10:23:01 GMT 45.442806 -0.161244 36,000 335 419 0
2019-10-15 10:22:57 GMT 45.434830 -0.155770 36,025 335 420 0
2019-10-15 10:22:52 GMT 45.425766 -0.149623 36,000 335 420 0
2019-10-15 10:22:44 GMT 45.411430 -0.139808 36,000 335 420 64
2019-10-15 10:22:41 GMT 45.405983 -0.136056 36,000 335 420 64
2019-10-15 10:22:37 GMT 45.389420 -0.124708 36,000 335 420 0
2019-10-15 10:22:31 GMT 45.389420 -0.124708 36,000 335 420 0
2019-10-15 10:22:26 GMT 45.380146 -0.118371 36,000 335 420 0
2019-10-15 10:22:21 GMT 45.371704 -0.112544 36,000 335 420 0
2019-10-15 10:22:14 GMT 45.359383 -0.104102 36,000 335 420 0
2019-10-15 10:22:10 GMT 45.352261 -0.099212 36,000 335 420 0
2019-10-15 10:22:04 GMT 45.341812 -0.092076 36,000 335 421 -64
2019-10-15 10:22:01 GMT 45.336548 -0.088479 36,000 335 421 -64
2019-10-15 10:21:58 GMT 45.332150 -0.085412 36,000 335 421 -64
2019-10-15 10:21:54 GMT 45.323444 -0.079517 36,025 335 421 -64
2019-10-15 10:21:49 GMT 45.315262 -0.073896 36,025 335 421 0
2019-10-15 10:21:46 GMT 45.310272 -0.070540 36,025 335 421 0
2019-10-15 10:21:43 GMT 45.304871 -0.066856 36,025 335 421 0
2019-10-15 10:21:39 GMT 45.297684 -0.061929 36,025 335 420 64
2019-10-15 10:21:35 GMT 45.292255 -0.058281 36,000 335 420 64
2019-10-15 10:21:32 GMT 45.284573 -0.052989 36,025 335 421 0
2019-10-15 10:21:29 GMT 45.279556 -0.049569 36,000 335 421 0
2019-10-15 10:21:25 GMT 45.272190 -0.044548 36,000 335 421 0
2019-10-15 10:21:20 GMT 45.264881 -0.039524 36,025 335 422 0
2019-10-15 10:21:16 GMT 45.257812 -0.034725 36,025 335 422 0
2019-10-15 10:21:08 GMT 45.236626 -0.020298 36,025 335 422 0
2019-10-15 10:21:00 GMT 45.229614 -0.015564 36,025 335 422 0
2019-10-15 10:20:57 GMT 45.224613 -0.012125 36,025 335 423 0
2019-10-15 10:20:53 GMT 45.217575 -0.007324 36,025 335 423 0
2019-10-15 10:20:47 GMT 45.205482 0.000938 36,025 335 422 0
2019-10-15 10:20:42 GMT 45.198593 0.005560 36,025 335 422 64
2019-10-15 10:20:39 GMT 45.187794 0.012929 36,000 335 423 0
2019-10-15 10:20:36 GMT 45.187794 0.012929 36,000 335 423 0
2019-10-15 10:20:29 GMT 45.174805 0.021839 36,000 335 423 0
2019-10-15 10:20:23 GMT 45.163910 0.029275 36,025 335 423 0
2019-10-15 10:20:19 GMT 45.158047 0.033294 36,000 335 423 0
2019-10-15 10:20:13 GMT 45.147709 0.040328 36,000 335 423 0
2019-10-15 10:20:08 GMT 45.138866 0.046424 36,000 335 423 0
2019-10-15 10:20:05 GMT 45.133759 0.049831 36,000 335 422 0
2019-10-15 10:20:01 GMT 45.126572 0.054735 36,000 335 423 0
2019-10-15 10:19:58 GMT 45.120338 0.058951 36,000 335 423 0
2019-10-15 10:19:54 GMT 45.112381 0.064414 36,000 335 422 64
2019-10-15 10:19:49 GMT 45.103905 0.070138 36,000 335 422 64
2019-10-15 10:19:45 GMT 45.098694 0.073635 36,000 335 422 64
2019-10-15 10:19:42 GMT 45.093105 0.077440 35,975 335 422 64
2019-10-15 10:19:38 GMT 45.085144 0.082799 35,975 335 422 64
2019-10-15 10:19:35 GMT 45.081280 0.085412 35,975 335 422 64
2019-10-15 10:19:32 GMT 45.074432 0.090049 35,975 335 422 64
2019-10-15 10:19:28 GMT 45.067314 0.094858 35,975 335 422 64
2019-10-15 10:19:25 GMT 45.063629 0.097373 35,975 335 421 0
2019-10-15 10:19:22 GMT 45.057678 0.101423 35,975 335 422 0
2019-10-15 10:19:17 GMT 45.048134 0.107921 35,975 334 421 -64
2019-10-15 10:19:11 GMT 45.038223 0.114702 35,975 335 422 -64
2019-10-15 10:19:06 GMT 45.029205 0.120915 35,975 335 421 0
2019-10-15 10:19:03 GMT 45.023975 0.124467 35,975 335 420 0
2019-10-15 10:19:00 GMT 45.019691 0.127348 35,975 335 421 0
2019-10-15 10:18:56 GMT 45.010757 0.133405 35,975 335 420 0
2019-10-15 10:18:53 GMT 45.007076 0.135855 35,975 335 420 0
2019-10-15 10:18:50 GMT 45.001373 0.139749 35,975 335 420 0
2019-10-15 10:18:47 GMT 44.995331 0.143803 35,975 335 420 0
2019-10-15 10:18:44 GMT 44.991760 0.146239 35,975 335 420 0
2019-10-15 10:18:40 GMT 44.983749 0.151651 35,975 335 420 0
2019-10-15 10:18:37 GMT 44.977936 0.155617 35,975 335 420 0
2019-10-15 10:18:33 GMT 44.971069 0.160283 35,975 335 420 0
2019-10-15 10:18:30 GMT 44.966766 0.163160 35,975 335 420 0
2019-10-15 10:18:25 GMT 44.957565 0.169373 35,975 335 420 0
2019-10-15 10:18:22 GMT 44.951111 0.173689 35,975 335 420 0
2019-10-15 10:18:19 GMT 44.946373 0.176853 35,975 335 420 0
2019-10-15 10:18:14 GMT 44.930916 0.187170 35,975 335 421 0
2019-10-15 10:18:10 GMT 44.930916 0.187170 35,975 335 421 0
2019-10-15 10:18:04 GMT 44.918839 0.195204 35,975 335 421 0
2019-10-15 10:18:01 GMT 44.914997 0.197754 36,000 335 420 0
2019-10-15 10:17:57 GMT 44.906570 0.203443 36,000 335 421 0
2019-10-15 10:17:53 GMT 44.901031 0.207199 36,000 335 421 0
2019-10-15 10:17:49 GMT 44.893936 0.211945 36,000 335 421 0
2019-10-15 10:17:46 GMT 44.889587 0.214887 36,000 335 421 0
2019-10-15 10:17:43 GMT 44.883453 0.219007 36,000 335 421 -64
2019-10-15 10:17:38 GMT 44.875797 0.224148 36,000 335 421 -64
2019-10-15 10:17:34 GMT 44.867661 0.229732 36,000 335 421 -64
2019-10-15 10:17:30 GMT 44.860474 0.234571 36,000 335 421 -64
2019-10-15 10:17:26 GMT 44.854385 0.238618 36,000 335 422 -64
2019-10-15 10:17:21 GMT 44.845367 0.244707 36,000 335 422 0
2019-10-15 10:17:15 GMT 44.829712 0.255236 36,025 335 423 0
2019-10-15 10:17:06 GMT 44.817261 0.263606 36,000 335 422 0
2019-10-15 10:17:03 GMT 44.799126 0.275730 36,025 335 423 0
2019-10-15 10:16:55 GMT 44.788933 0.282563 36,025 335 424 0
2019-10-15 10:16:49 GMT 44.788933 0.282563 36,025 335 423 0
2019-10-15 10:16:45 GMT 44.781418 0.287606 36,025 335 423 0
2019-10-15 10:16:41 GMT 44.774734 0.292076 36,025 335 423 0
2019-10-15 10:16:35 GMT 44.763935 0.299243 36,025 335 424 0
2019-10-15 10:16:32 GMT 44.757046 0.303866 36,025 335 424 0
2019-10-15 10:16:24 GMT 44.745033 0.311838 36,025 335 424 0
2019-10-15 10:16:20 GMT 44.737957 0.316594 36,025 335 424 0
2019-10-15 10:16:14 GMT 44.726715 0.324097 36,025 335 424 0
2019-10-15 10:16:11 GMT 44.721039 0.327824 36,000 335 424 0
2019-10-15 10:16:04 GMT 44.708210 0.336423 36,025 335 424 -64
2019-10-15 10:16:01 GMT 44.702637 0.340118 36,025 335 424 -64
2019-10-15 10:15:53 GMT 44.689499 0.348881 36,025 335 424 0
2019-10-15 10:15:48 GMT 44.681671 0.354178 36,025 335 424 0
2019-10-15 10:15:41 GMT 44.656723 0.370789 36,025 335 424 0
2019-10-15 10:15:35 GMT 44.656723 0.370789 36,025 335 424 0
2019-10-15 10:15:32 GMT 44.651604 0.374205 36,025 335 424 0
2019-10-15 10:15:26 GMT 44.642578 0.380205 36,025 335 424 0
2019-10-15 10:15:23 GMT 44.637032 0.383852 36,025 335 424 -64
2019-10-15 10:15:20 GMT 44.631958 0.387203 36,025 335 424 -64
2019-10-15 10:15:17 GMT 44.623577 0.392828 36,025 335 425 -64
2019-10-15 10:15:13 GMT 44.618225 0.396379 36,025 335 425 -64
2019-10-15 10:15:09 GMT 44.611038 0.401197 36,025 335 425 0
2019-10-15 10:15:02 GMT 44.599091 0.409174 36,025 335 425 0
2019-10-15 10:14:58 GMT 44.580826 0.421273 36,000 335 424 64
2019-10-15 10:14:52 GMT 44.580826 0.421273 36,025 335 424 0
2019-10-15 10:14:47 GMT 44.573441 0.426189 36,025 335 424 64
2019-10-15 10:14:42 GMT 44.563202 0.432979 36,025 335 424 64
2019-10-15 10:14:38 GMT 44.557526 0.436707 36,000 335 424 0
2019-10-15 10:14:31 GMT 44.541916 0.446974 36,000 335 424 64
2019-10-15 10:14:26 GMT 44.536240 0.450701 36,000 335 424 0
2019-10-15 10:14:22 GMT 44.527634 0.456390 36,000 335 424 0
2019-10-15 10:14:18 GMT 44.521042 0.460772 36,000 335 424 0
2019-10-15 10:14:14 GMT 44.513672 0.465611 36,000 335 424 64
2019-10-15 10:14:10 GMT 44.506500 0.470402 36,000 335 424 64
2019-10-15 10:14:06 GMT 44.498959 0.475360 36,000 335 425 64
2019-10-15 10:14:01 GMT 44.491562 0.480194 36,000 337 424 0
2019-10-15 10:13:55 GMT 44.480255 0.487191 36,000 343 426 64
2019-10-15 10:13:51 GMT 44.472935 0.491437 36,000 338 425 0
2019-10-15 10:13:46 GMT 44.462975 0.496997 36,000 340 425 0
2019-10-15 10:13:42 GMT 44.454437 0.501447 36,000 341 425 0
2019-10-15 10:13:33 GMT 44.439651 0.508654 36,000 343 426 64
2019-10-15 10:13:30 GMT 44.433105 0.511584 36,000 345 427 0
2019-10-15 10:13:24 GMT 44.423729 0.515621 36,000 344 426 0
2019-10-15 10:13:20 GMT 44.415489 0.518970 35,975 345 427 0
2019-10-15 10:13:14 GMT 44.403198 0.523525 36,000 350 429 0
2019-10-15 10:13:10 GMT 44.396576 0.525709 35,975 348 428 0
2019-10-15 10:13:06 GMT 44.388062 0.528390 35,975 349 428 0
2019-10-15 10:13:03 GMT 44.382111 0.530157 36,000 350 429 0
2019-10-15 10:12:58 GMT 44.370483 0.533295 36,000 350 429 0
2019-10-15 10:12:53 GMT 44.362934 0.535249 36,000 350 429 0
2019-10-15 10:12:46 GMT 44.349712 0.538665 35,975 350 428 64
2019-10-15 10:12:42 GMT 44.340912 0.540943 35,975 350 428 64
2019-10-15 10:12:39 GMT 44.336929 0.541992 35,975 350 428 64
2019-10-15 10:12:32 GMT 44.321594 0.545967 35,975 350 428 0
2019-10-15 10:12:29 GMT 44.316513 0.547224 35,975 350 428 0
2019-10-15 10:12:25 GMT 44.308048 0.549450 35,975 350 428 0
2019-10-15 10:12:19 GMT 44.297333 0.552259 35,975 350 428 0
2019-10-15 10:12:14 GMT 44.280396 0.556618 35,975 350 428 0
2019-10-15 10:12:11 GMT 44.280396 0.556618 35,975 350 428 0
2019-10-15 10:12:08 GMT 44.276394 0.557623 35,975 350 428 0
2019-10-15 10:12:02 GMT 44.264427 0.560705 35,975 350 428 0
2019-10-15 10:11:58 GMT 44.254166 0.563376 35,975 350 428 0
2019-10-15 10:11:52 GMT 44.244923 0.565729 35,975 350 428 0
2019-10-15 10:11:48 GMT 44.235855 0.568085 35,975 350 428 0
2019-10-15 10:11:42 GMT 44.224731 0.570962 35,975 350 428 0
2019-10-15 10:11:37 GMT 44.214066 0.573709 35,975 350 428 0
2019-10-15 10:11:32 GMT 44.203491 0.576447 35,975 350 428 0
2019-10-15 10:11:28 GMT 44.197540 0.577959 35,975 350 428 0
2019-10-15 10:11:16 GMT 44.174286 0.583936 35,975 350 428 0
2019-10-15 10:11:09 GMT 44.161606 0.587194 35,975 350 428 0
2019-10-15 10:11:06 GMT 44.155540 0.588749 35,975 350 428 0
2019-10-15 10:11:03 GMT 44.148193 0.590643 35,975 350 430 -64
2019-10-15 10:10:59 GMT 44.140823 0.592559 35,975 350 428 0
2019-10-15 10:10:55 GMT 44.133942 0.594308 35,975 350 428 0
2019-10-15 10:10:49 GMT 44.119419 0.598036 35,975 350 428 0
2019-10-15 10:10:45 GMT 44.115005 0.599138 35,975 350 429 -64
2019-10-15 10:10:38 GMT 44.099682 0.603071 35,975 350 429 -64
2019-10-15 10:10:35 GMT 44.093906 0.604575 35,975 350 428 0
2019-10-15 10:10:27 GMT 44.079346 0.608400 35,975 350 429 -64
2019-10-15 10:10:24 GMT 44.072632 0.610134 35,975 350 429 -128
2019-10-15 10:10:17 GMT 44.058792 0.613701 36,000 350 429 -64
2019-10-15 10:10:14 GMT 44.053173 0.615169 36,000 350 429 -64
2019-10-15 10:10:06 GMT 44.038277 0.618962 36,000 350 429 -64
2019-10-15 10:10:03 GMT 44.032700 0.620408 36,025 350 429 -64
2019-10-15 10:09:56 GMT 44.007065 0.626987 36,050 350 430 -64
2019-10-15 10:09:50 GMT 44.007065 0.626987 36,025 350 430 -64
2019-10-15 10:09:44 GMT 43.984463 0.632826 36,025 350 430 -64
2019-10-15 10:09:39 GMT 43.984463 0.632826 36,050 350 434 0
2019-10-15 10:09:34 GMT 43.976349 0.634908 36,025 350 430 0
2019-10-15 10:09:29 GMT 43.964859 0.637910 36,050 350 431 0
2019-10-15 10:09:24 GMT 43.954926 0.640465 36,050 350 432 0
2019-10-15 10:09:18 GMT 43.936234 0.645251 36,050 350 434 0
2019-10-15 10:09:14 GMT 43.936234 0.645251 36,050 350 433 0
2019-10-15 10:09:08 GMT 43.923569 0.648449 36,050 350 433 0
2019-10-15 10:09:04 GMT 43.914963 0.650684 36,050 350 433 0
2019-10-15 10:08:57 GMT 43.902328 0.653878 36,050 350 433 0
2019-10-15 10:08:53 GMT 43.894711 0.655845 36,050 350 433 0
2019-10-15 10:08:46 GMT 43.880768 0.659371 36,050 350 433 0
2019-10-15 10:08:43 GMT 43.872757 0.661415 36,050 350 434 0
2019-10-15 10:08:35 GMT 43.860214 0.664607 36,050 350 434 0
2019-10-15 10:08:32 GMT 43.853119 0.666461 36,050 350 434 -64
2019-10-15 10:08:25 GMT 43.839066 0.670038 36,050 350 434 -64
2019-10-15 10:08:22 GMT 43.832016 0.671827 36,050 350 434 0
2019-10-15 10:08:15 GMT 43.820572 0.674765 36,050 350 434 0
2019-10-15 10:08:11 GMT 43.811325 0.677128 36,050 350 434 0
2019-10-15 10:08:04 GMT 43.798004 0.680514 36,050 350 435 0
2019-10-15 10:08:00 GMT 43.787750 0.683132 36,050 350 435 0
2019-10-15 10:07:54 GMT 43.777634 0.685687 36,050 350 435 0
2019-10-15 10:07:50 GMT 43.770493 0.687476 36,050 350 435 0
2019-10-15 10:07:43 GMT 43.756256 0.691117 36,050 350 436 0
2019-10-15 10:07:39 GMT 43.746735 0.693480 36,050 350 436 0
2019-10-15 10:07:31 GMT 43.732384 0.697109 36,050 350 436 64
2019-10-15 10:07:28 GMT 43.727875 0.698271 36,050 350 436 64
2019-10-15 10:07:22 GMT 43.715240 0.701464 36,025 350 436 64
2019-10-15 10:07:19 GMT 43.706268 0.703764 36,025 350 436 64
2019-10-15 10:07:12 GMT 43.694550 0.706702 36,025 350 436 64
2019-10-15 10:07:07 GMT 43.685440 0.709001 36,025 350 436 64
2019-10-15 10:07:00 GMT 43.672623 0.712259 36,000 350 436 128
2019-10-15 10:06:57 GMT 43.663113 0.714700 36,000 350 436 64
2019-10-15 10:06:48 GMT 43.644958 0.719212 35,975 350 435 64
2019-10-15 10:06:37 GMT 43.624603 0.724395 35,975 350 435 64
2019-10-15 10:06:29 GMT 43.610229 0.728040 35,975 350 434 64
2019-10-15 10:06:26 GMT 43.604130 0.729610 35,975 350 434 0
2019-10-15 10:06:18 GMT 43.589035 0.733401 35,975 350 433 0
2019-10-15 10:06:14 GMT 43.577774 0.736276 35,975 350 432 0
2019-10-15 10:06:08 GMT 43.569450 0.738307 35,950 350 431 64
2019-10-15 10:06:05 GMT 43.562164 0.740172 35,950 350 431 64
2019-10-15 10:05:55 GMT 43.541985 0.745239 35,950 350 429 0
2019-10-15 10:05:44 GMT 43.521973 0.750328 35,950 350 427 0
2019-10-15 10:05:34 GMT 43.500923 0.755637 35,950 350 427 -64
2019-10-15 10:05:23 GMT 43.480583 0.760738 35,975 350 425 0
2019-10-15 10:05:13 GMT 43.459122 0.766100 35,975 350 425 64
2019-10-15 10:05:04 GMT 43.443649 0.770001 35,975 350 424 0
2019-10-15 10:05:01 GMT 43.439617 0.771005 35,975 350 425 64
2019-10-15 10:04:55 GMT 43.424206 0.774863 35,975 350 425 -64
2019-10-15 10:04:52 GMT 43.419598 0.776040 35,975 350 425 -64
2019-10-15 10:04:44 GMT 43.405910 0.779441 35,975 350 424 -64
2019-10-15 10:04:40 GMT 43.397671 0.781533 35,975 350 425 0
2019-10-15 10:04:31 GMT 43.378490 0.786373 35,975 350 424 64
2019-10-15 10:04:28 GMT 43.374630 0.787354 35,975 350 425 64
2019-10-15 10:04:23 GMT 43.366112 0.789512 35,975 350 425 64
2019-10-15 10:04:20 GMT 43.353607 0.792740 35,975 350 425 0
2019-10-15 10:04:13 GMT 43.345596 0.794784 35,975 350 425 0
2019-10-15 10:04:10 GMT 43.340923 0.795986 35,975 350 426 0
2019-10-15 10:04:07 GMT 43.333710 0.797817 35,975 350 426 0
2019-10-15 10:04:04 GMT 43.326260 0.799713 35,975 350 426 0
2019-10-15 10:03:56 GMT 43.306477 0.804683 36,000 350 426 -64
2019-10-15 10:03:53 GMT 43.306477 0.804683 36,000 350 426 -64
2019-10-15 10:03:46 GMT 43.294418 0.807691 36,000 350 425 -64
2019-10-15 10:03:43 GMT 43.287277 0.809475 36,000 350 426 0
2019-10-15 10:03:37 GMT 43.275425 0.812465 36,000 350 427 0
2019-10-15 10:03:32 GMT 43.265369 0.814950 36,000 350 427 -64
2019-10-15 10:03:24 GMT 43.251480 0.818418 36,000 350 427 -64
2019-10-15 10:03:20 GMT 43.243973 0.820270 36,000 350 427 -64
2019-10-15 10:03:16 GMT 43.235229 0.822506 36,000 350 427 0
2019-10-15 10:03:12 GMT 43.227768 0.824358 36,000 350 427 0
2019-10-15 10:03:09 GMT 43.214211 0.827702 36,000 350 428 64
2019-10-15 10:03:06 GMT 43.214211 0.827702 36,000 350 427 0
2019-10-15 10:03:02 GMT 43.207306 0.829404 36,000 350 430 -64
2019-10-15 10:02:59 GMT 43.202526 0.830645 36,000 350 428 64
2019-10-15 10:02:55 GMT 43.185928 0.834769 36,000 350 428 0
2019-10-15 10:02:51 GMT 43.185928 0.834769 36,000 350 430 -64
2019-10-15 10:02:48 GMT 43.182041 0.835680 36,000 350 437 -64
2019-10-15 10:02:44 GMT 43.171429 0.838361 36,000 350 428 0
2019-10-15 10:02:40 GMT 43.165604 0.839815 36,000 350 429 0
2019-10-15 10:02:37 GMT 43.158783 0.841540 36,000 350 437 -64
2019-10-15 10:02:34 GMT 43.152695 0.843073 36,000 350 430 -64
2019-10-15 10:02:30 GMT 43.145916 0.844770 36,000 350 431 -64
2019-10-15 10:02:26 GMT 43.138092 0.846714 36,000 350 431 -64
2019-10-15 10:02:23 GMT 43.131958 0.848247 36,025 350 431 0
2019-10-15 10:02:19 GMT 43.124954 0.849971 36,025 350 431 0
2019-10-15 10:02:16 GMT 43.118080 0.851702 36,000 350 431 0
2019-10-15 10:02:13 GMT 43.111656 0.853337 36,025 350 431 0
2019-10-15 10:02:10 GMT 43.104671 0.855037 36,000 350 431 -64
2019-10-15 10:02:05 GMT 43.096619 0.857064 36,025 350 432 -64
2019-10-15 10:02:02 GMT 43.090714 0.858530 36,025 350 432 -64
2019-10-15 10:01:59 GMT 43.084282 0.860073 36,025 350 432 0
2019-10-15 10:01:54 GMT 43.075836 0.862171 36,025 350 433 0
2019-10-15 10:01:49 GMT 43.062698 0.865429 36,025 350 433 0
2019-10-15 10:01:44 GMT 43.054813 0.867397 36,025 350 434 64
2019-10-15 10:01:39 GMT 43.043472 0.870219 36,025 350 433 64
2019-10-15 10:01:33 GMT 43.033173 0.872774 36,025 350 434 64
2019-10-15 10:01:30 GMT 43.027725 0.874116 36,000 350 434 64
2019-10-15 10:01:26 GMT 43.020035 0.875968 36,000 350 434 64
2019-10-15 10:01:20 GMT 43.007858 0.878970 36,000 350 435 64
2019-10-15 10:01:17 GMT 43.001743 0.880476 36,000 350 436 0
2019-10-15 10:01:12 GMT 42.992062 0.882895 36,000 350 436 0
2019-10-15 10:01:07 GMT 42.982006 0.885380 36,000 350 435 0
2019-10-15 10:01:03 GMT 42.974350 0.887274 36,000 350 435 0
2019-10-15 10:00:59 GMT 42.966614 0.889190 36,000 350 435 0
2019-10-15 10:00:56 GMT 42.959976 0.890787 36,000 350 435 64
2019-10-15 10:00:51 GMT 42.949860 0.893342 35,975 350 435 64
2019-10-15 10:00:47 GMT 42.942078 0.895258 35,975 350 435 128
2019-10-15 10:00:44 GMT 42.937042 0.896535 35,975 350 435 128
2019-10-15 10:00:38 GMT 42.923023 0.899963 35,950 350 435 64
2019-10-15 10:00:35 GMT 42.919235 0.900879 35,950 350 435 64
2019-10-15 10:00:29 GMT 42.905521 0.904279 35,950 350 435 0
2019-10-15 10:00:26 GMT 42.900330 0.905606 35,950 350 435 0
2019-10-15 10:00:19 GMT 42.880428 0.910492 35,950 350 434 0
2019-10-15 10:00:16 GMT 42.880428 0.910492 35,950 350 434 0
2019-10-15 10:00:08 GMT 42.865299 0.914219 35,950 350 434 0
2019-10-15 10:00:05 GMT 42.859634 0.915570 35,950 350 434 64
2019-10-15 09:59:55 GMT 42.837891 0.920935 35,950 350 435 0
2019-10-15 09:59:52 GMT 42.834621 0.921740 35,950 350 434 0
2019-10-15 09:59:46 GMT 42.822739 0.924704 35,950 350 435 -64
2019-10-15 09:59:42 GMT 42.813999 0.926841 35,950 350 435 -64
2019-10-15 09:59:37 GMT 42.803761 0.929367 35,975 350 434 0
2019-10-15 09:59:33 GMT 42.795238 0.931475 35,950 350 434 0
2019-10-15 09:59:25 GMT 42.780205 0.935115 35,950 350 433 0
2019-10-15 09:59:22 GMT 42.773731 0.936712 35,950 350 433 0
2019-10-15 09:59:18 GMT 42.768101 0.938117 35,950 350 433 -64
2019-10-15 09:59:14 GMT 42.759113 0.940353 35,975 350 433 -64
2019-10-15 09:59:11 GMT 42.752785 0.941886 35,975 350 433 -128
2019-10-15 09:59:06 GMT 42.742355 0.944441 35,975 350 434 -128
2019-10-15 09:59:03 GMT 42.738144 0.945448 35,975 350 433 -64
2019-10-15 09:59:00 GMT 42.730301 0.947379 35,975 350 433 -64
2019-10-15 09:58:57 GMT 42.725967 0.948445 35,975 350 435 -64
2019-10-15 09:58:53 GMT 42.716583 0.950754 36,000 350 435 -64
2019-10-15 09:58:50 GMT 42.708885 0.952681 36,000 350 435 -64
2019-10-15 09:58:45 GMT 42.701935 0.954375 36,000 350 435 -64
2019-10-15 09:58:42 GMT 42.694824 0.956130 36,000 350 435 -64
2019-10-15 09:58:39 GMT 42.689098 0.957535 36,000 350 435 0
2019-10-15 09:58:35 GMT 42.681015 0.959556 36,000 350 436 -64
2019-10-15 09:58:31 GMT 42.671040 0.962070 36,025 350 436 -64
2019-10-15 09:58:28 GMT 42.668198 0.962739 36,025 350 437 -64
2019-10-15 09:58:25 GMT 42.661377 0.964487 36,025 350 437 -64
2019-10-15 09:58:21 GMT 42.653641 0.966360 36,025 350 438 -128
2019-10-15 09:58:18 GMT 42.645218 0.968420 36,025 350 438 -64
2019-10-15 09:58:15 GMT 42.640869 0.969543 36,025 350 438 -64
2019-10-15 09:58:09 GMT 42.629242 0.972352 36,050 350 438 0
2019-10-15 09:58:06 GMT 42.623180 0.973823 36,050 350 438 0
2019-10-15 09:58:03 GMT 42.618156 0.975037 36,025 350 438 0
2019-10-15 09:57:59 GMT 42.610008 0.977017 36,025 350 439 64
2019-10-15 09:57:56 GMT 42.597153 0.980155 36,025 350 439 64
2019-10-15 09:57:48 GMT 42.588127 0.982382 36,025 350 441 0
2019-10-15 09:57:45 GMT 42.582092 0.983838 36,025 350 441 0
2019-10-15 09:57:42 GMT 42.576736 0.985149 36,025 350 441 0
2019-10-15 09:57:39 GMT 42.567783 0.987364 36,025 350 441 0
2019-10-15 09:57:33 GMT 42.557877 0.989768 36,025 350 442 64
2019-10-15 09:57:28 GMT 42.547394 0.992283 36,000 350 442 64
2019-10-15 09:57:22 GMT 42.536736 0.994901 36,000 350 442 192
2019-10-15 09:57:17 GMT 42.525513 0.997634 35,975 350 443 192
2019-10-15 09:57:11 GMT 42.514900 1.000139 35,950 350 443 192
2019-10-15 09:57:06 GMT 42.503632 1.002877 35,950 350 443 64
2019-10-15 09:57:01 GMT 42.493240 1.005374 35,950 350 444 64
2019-10-15 09:56:56 GMT 42.483570 1.007740 35,950 350 444 64
2019-10-15 09:56:52 GMT 42.473328 1.010180 35,950 350 444 0
2019-10-15 09:56:45 GMT 42.460419 1.013364 35,950 350 444 0
2019-10-15 09:56:40 GMT 42.451492 1.015549 35,950 350 443 0
2019-10-15 09:56:36 GMT 42.442200 1.017796 35,950 350 443 0
2019-10-15 09:56:30 GMT 42.430435 1.020605 35,950 350 442 0
2019-10-15 09:56:27 GMT 42.423145 1.022367 35,950 350 442 -64
2019-10-15 09:56:23 GMT 42.417114 1.023851 35,950 350 442 -64
2019-10-15 09:56:18 GMT 42.406174 1.026473 35,950 350 442 -64
2019-10-15 09:56:15 GMT 42.400150 1.027924 35,975 350 442 -64
2019-10-15 09:56:12 GMT 42.395355 1.029074 35,975 350 442 -64
2019-10-15 09:56:05 GMT 42.379898 1.032777 35,975 350 441 -128
2019-10-15 09:56:01 GMT 42.371895 1.034759 35,975 350 442 -128
2019-10-15 09:55:58 GMT 42.365517 1.036292 35,975 350 442 -128
2019-10-15 09:55:54 GMT 42.358349 1.038016 36,000 350 442 -64
2019-10-15 09:55:50 GMT 42.350342 1.039996 36,000 351 442 0
2019-10-15 09:55:46 GMT 42.341675 1.042016 36,000 351 443 0
2019-10-15 09:55:43 GMT 42.333160 1.043829 36,000 352 443 0
2019-10-15 09:55:37 GMT 42.319565 1.046323 36,000 354 446 0
2019-10-15 09:55:33 GMT 42.316360 1.046885 36,000 355 447 64
2019-10-15 09:55:29 GMT 42.308350 1.048045 36,000 355 448 64
2019-10-15 09:55:26 GMT 42.301414 1.048939 36,000 356 449 64
2019-10-15 09:55:23 GMT 42.294891 1.049694 36,000 356 449 64
2019-10-15 09:55:19 GMT 42.286423 1.050630 36,000 356 449 0
2019-10-15 09:55:13 GMT 42.273514 1.052003 35,975 356 450 0
2019-10-15 09:55:08 GMT 42.263809 1.053002 36,000 356 450 0
2019-10-15 09:55:02 GMT 42.251038 1.054375 36,000 357 451 -64
2019-10-15 09:54:57 GMT 42.241562 1.055187 36,000 358 451 -128
2019-10-15 09:54:52 GMT 42.223846 1.056186 36,025 359 453 -192
2019-10-15 09:54:49 GMT 42.218319 1.056348 36,050 0 454 -256
2019-10-15 09:54:46 GMT 42.207596 1.056435 36,050 0 455 -192
2019-10-15 09:54:41 GMT 42.207596 1.056435 36,050 0 455 0
2019-10-15 09:54:38 GMT 42.201839 1.056412 36,050 0 456 0
2019-10-15 09:54:33 GMT 42.191391 1.056186 36,050 2 457 0
2019-10-15 09:54:29 GMT 42.179680 1.055582 36,050 2 458 0
2019-10-15 09:54:24 GMT 42.172325 1.055071 36,050 3 459 0
2019-10-15 09:54:21 GMT 42.163853 1.054304 36,050 4 460 0
2019-10-15 09:54:12 GMT 42.146675 1.052324 36,050 6 462 0
2019-10-15 09:54:08 GMT 42.136368 1.050817 36,050 7 464 0
2019-10-15 09:54:03 GMT 42.127869 1.049322 36,050 8 465 0
2019-10-15 09:54:00 GMT 42.120140 1.047853 36,050 8 466 0
2019-10-15 09:53:57 GMT 42.112747 1.046323 36,050 9 467 0
2019-10-15 09:53:53 GMT 42.105289 1.044659 36,050 10 467 0
2019-10-15 09:53:50 GMT 42.096588 1.042515 36,050 10 468 64
2019-10-15 09:53:47 GMT 42.093094 1.041657 36,050 11 469 64
2019-10-15 09:53:44 GMT 42.085552 1.039613 36,050 11 468 64
2019-10-15 09:53:41 GMT 42.080662 1.038208 36,050 12 469 64
2019-10-15 09:53:38 GMT 42.065765 1.033609 36,025 13 470 64
2019-10-15 09:53:35 GMT 42.065765 1.033609 36,025 14 471 64
2019-10-15 09:53:30 GMT 42.056969 1.030607 36,025 14 471 64
2019-10-15 09:53:26 GMT 42.048523 1.027596 36,025 15 471 128
2019-10-15 09:53:23 GMT 42.043121 1.025599 36,025 16 471 128
2019-10-15 09:53:20 GMT 42.036072 1.022790 36,000 16 472 128
2019-10-15 09:53:17 GMT 42.027824 1.019493 36,000 16 471 64
2019-10-15 09:53:13 GMT 42.018906 1.015923 36,000 16 471 64
2019-10-15 09:53:08 GMT 42.010975 1.012786 36,000 16 471 64
2019-10-15 09:53:05 GMT 42.003944 1.009976 36,000 16 470 128
2019-10-15 09:53:01 GMT 41.988071 1.003652 35,975 16 470 128
2019-10-15 09:52:57 GMT 41.988071 1.003652 35,975 16 470 64
2019-10-15 09:52:53 GMT 41.977085 0.999245 35,975 16 469 64
2019-10-15 09:52:50 GMT 41.973770 0.997946 35,975 16 469 64
2019-10-15 09:52:47 GMT 41.967587 0.995476 35,975 16 469 0
2019-10-15 09:52:44 GMT 41.960976 0.992857 35,975 16 469 0
2019-10-15 09:52:41 GMT 41.954407 0.990205 35,975 16 468 0
2019-10-15 09:52:37 GMT 41.945755 0.986789 35,975 16 468 0
2019-10-15 09:52:33 GMT 41.937141 0.983340 35,975 16 467 0
2019-10-15 09:52:27 GMT 41.924377 0.978220 35,975 16 466 0
2019-10-15 09:52:22 GMT 41.915215 0.974590 35,975 16 465 0
2019-10-15 09:52:18 GMT 41.901764 0.969169 35,975 16 463 0
2019-10-15 09:52:15 GMT 41.892288 0.965424 35,975 16 463 0
2019-10-15 09:52:12 GMT 41.892288 0.965424 35,975 16 464 0
2019-10-15 09:52:06 GMT 41.881142 0.960920 35,975 16 464 0
2019-10-15 09:52:00 GMT 41.869766 0.956372 35,975 16 463 0
2019-10-15 09:51:57 GMT 41.860840 0.952814 35,975 16 463 0
2019-10-15 09:51:50 GMT 41.846832 0.947259 36,000 16 461 -64
2019-10-15 09:51:45 GMT 41.826141 0.938957 35,975 16 461 -64
2019-10-15 09:51:39 GMT 41.826141 0.938957 36,000 16 461 -64
2019-10-15 09:51:35 GMT 41.816013 0.934924 36,000 16 461 -64
2019-10-15 09:51:31 GMT 41.811127 0.933008 36,000 16 461 -64
2019-10-15 09:51:28 GMT 41.803955 0.930197 36,000 16 461 -64
2019-10-15 09:51:24 GMT 41.795761 0.926939 36,000 16 459 -128
2019-10-15 09:51:21 GMT 41.790482 0.924849 36,000 16 459 -128
2019-10-15 09:51:16 GMT 41.779953 0.920729 36,025 16 459 -128
2019-10-15 09:51:13 GMT 41.772999 0.917997 36,025 16 458 -128
2019-10-15 09:51:09 GMT 41.765030 0.914862 36,025 16 458 0
2019-10-15 09:51:06 GMT 41.759766 0.912739 36,050 16 458 0
2019-10-15 09:51:01 GMT 41.748653 0.908352 36,050 16 458 0
2019-10-15 09:50:56 GMT 41.738800 0.904437 36,025 16 457 0
2019-10-15 09:50:53 GMT 41.730377 0.901066 36,025 16 457 0
2019-10-15 09:50:50 GMT 41.727310 0.899880 36,025 16 457 0
2019-10-15 09:50:46 GMT 41.717697 0.896072 36,025 16 457 0
2019-10-15 09:50:42 GMT 41.710434 0.893214 36,025 16 457 0
2019-10-15 09:50:39 GMT 41.705429 0.891266 36,025 16 457 0
2019-10-15 09:50:33 GMT 41.693859 0.886699 36,050 16 456 0
2019-10-15 09:50:29 GMT 41.685017 0.883186 36,025 16 456 0
2019-10-15 09:50:23 GMT 41.671417 0.877783 36,025 16 455 0
2019-10-15 09:50:19 GMT 41.663975 0.874818 36,025 16 455 64
2019-10-15 09:50:11 GMT 41.647915 0.868495 36,025 16 455 64
2019-10-15 09:50:08 GMT 41.641800 0.866047 36,025 16 455 0
2019-10-15 09:50:03 GMT 41.631851 0.862107 36,025 16 454 64
2019-10-15 09:50:00 GMT 41.625755 0.859744 36,025 16 454 64
2019-10-15 09:49:57 GMT 41.620819 0.857764 36,025 16 454 64
2019-10-15 09:49:51 GMT 41.605911 0.851877 36,000 16 454 64
2019-10-15 09:49:47 GMT 41.598801 0.849077 36,000 16 454 64
2019-10-15 09:49:40 GMT 41.585358 0.843762 36,000 16 453 0
2019-10-15 09:49:36 GMT 41.577435 0.840646 36,000 16 453 0
2019-10-15 09:49:28 GMT 41.559883 0.833747 36,000 16 452 64
2019-10-15 09:49:25 GMT 41.555923 0.832152 36,000 16 452 64
2019-10-15 09:49:20 GMT 41.544113 0.827470 35,975 16 451 0
2019-10-15 09:49:14 GMT 41.534042 0.823538 36,000 16 451 0
2019-10-15 09:49:11 GMT 41.526924 0.820717 36,000 16 451 0
2019-10-15 09:49:08 GMT 41.521500 0.818544 35,975 16 451 0
2019-10-15 09:49:03 GMT 41.511749 0.814736 35,975 16 451 0
2019-10-15 09:49:00 GMT 41.504906 0.812030 35,975 16 450 -64
2019-10-15 09:48:56 GMT 41.495361 0.808307 36,000 16 450 -64
2019-10-15 09:48:53 GMT 41.491562 0.806808 36,000 16 450 -64
2019-10-15 09:48:45 GMT 41.475624 0.800533 36,000 16 449 0
2019-10-15 09:48:42 GMT 41.469711 0.798233 36,000 16 449 0
2019-10-15 09:48:37 GMT 41.460495 0.794593 36,000 16 448 0
2019-10-15 09:48:34 GMT 41.454254 0.792165 36,000 16 448 64
2019-10-15 09:48:30 GMT 41.444153 0.788141 36,000 16 448 64
2019-10-15 09:48:27 GMT 41.438049 0.785710 35,975 16 448 64
2019-10-15 09:48:23 GMT 41.432564 0.783606 36,000 16 448 0
2019-10-15 09:48:20 GMT 41.425442 0.780796 36,000 16 448 0
2019-10-15 09:48:17 GMT 41.419373 0.778406 36,000 16 448 0
2019-10-15 09:48:14 GMT 41.413940 0.776261 36,000 16 447 0
2019-10-15 09:48:09 GMT 41.402817 0.771853 36,000 16 447 64
2019-10-15 09:48:05 GMT 41.395226 0.768851 36,000 16 447 0
2019-10-15 09:48:02 GMT 41.389828 0.766744 36,000 16 447 64
2019-10-15 09:47:58 GMT 41.382145 0.763737 36,000 16 447 0
2019-10-15 09:47:55 GMT 41.375107 0.760986 36,000 16 447 0
2019-10-15 09:47:51 GMT 41.368088 0.758181 35,975 16 447 0
2019-10-15 09:47:46 GMT 41.357380 0.753999 36,000 16 446 -64
2019-10-15 09:47:43 GMT 41.352356 0.752014 36,000 16 447 -64
2019-10-15 09:47:39 GMT 41.343750 0.748657 36,000 16 447 -64
2019-10-15 09:47:36 GMT 41.337456 0.746134 36,000 16 447 -64
2019-10-15 09:47:31 GMT 41.329357 0.743013 36,000 16 446 -64
2019-10-15 09:47:28 GMT 41.322510 0.740295 36,000 16 446 -64
2019-10-15 09:47:25 GMT 41.316467 0.737915 36,000 16 446 -64
2019-10-15 09:47:20 GMT 41.306404 0.733962 36,000 16 446 -64
2019-10-15 09:47:15 GMT 41.294769 0.729467 36,000 16 445 0
2019-10-15 09:47:11 GMT 41.288761 0.727095 36,000 16 445 0
2019-10-15 09:47:06 GMT 41.279873 0.723662 36,000 16 445 0
2019-10-15 09:47:03 GMT 41.270691 0.720032 36,000 16 445 0
2019-10-15 09:47:00 GMT 41.267624 0.718872 36,000 16 445 0
2019-10-15 09:46:56 GMT 41.258827 0.715422 36,000 16 445 0
2019-10-15 09:46:53 GMT 41.251099 0.712402 36,000 16 446 0
2019-10-15 09:46:50 GMT 41.247070 0.710815 36,000 16 446 0
2019-10-15 09:46:45 GMT 41.236858 0.706870 36,000 16 447 0
2019-10-15 09:46:42 GMT 41.229355 0.703979 36,000 16 447 0
2019-10-15 09:46:39 GMT 41.226471 0.702820 36,000 16 447 0
2019-10-15 09:46:33 GMT 41.212418 0.697388 36,000 16 447 0
2019-10-15 09:46:29 GMT 41.206055 0.694885 36,000 16 447 0
2019-10-15 09:46:23 GMT 41.194977 0.690552 36,000 16 448 0
2019-10-15 09:46:18 GMT 41.184586 0.686523 36,000 16 448 0
2019-10-15 09:46:12 GMT 41.172894 0.681964 36,000 16 449 0
2019-10-15 09:46:08 GMT 41.163769 0.678406 36,000 16 449 0
2019-10-15 09:46:00 GMT 41.145428 0.671227 36,000 16 448 -64
2019-10-15 09:45:56 GMT 41.140686 0.669373 36,000 16 449 0
2019-10-15 09:45:50 GMT 41.128624 0.664673 36,000 16 448 -64
2019-10-15 09:45:46 GMT 41.120522 0.661489 36,000 16 447 -64
2019-10-15 09:45:40 GMT 41.107590 0.656494 36,000 16 445 -64
2019-10-15 09:45:37 GMT 41.099808 0.653503 36,025 16 444 -64
2019-10-15 09:45:34 GMT 41.096874 0.652313 36,000 16 443 -64
2019-10-15 09:45:29 GMT 41.087097 0.648505 36,025 16 442 0
2019-10-15 09:45:24 GMT 41.076626 0.644448 36,000 16 440 64
2019-10-15 09:45:19 GMT 41.067314 0.640890 36,000 16 439 128
2019-10-15 09:45:15 GMT 41.054443 0.635925 36,000 16 439 128
2019-10-15 09:45:08 GMT 41.046478 0.632874 35,975 16 438 128
2019-10-15 09:45:04 GMT 41.037186 0.629272 35,975 16 438 128
2019-10-15 09:45:01 GMT 41.031002 0.626907 35,975 16 439 0
2019-10-15 09:44:57 GMT 41.025192 0.624634 35,975 16 439 0
2019-10-15 09:44:54 GMT 41.018246 0.621976 35,975 16 440 0
2019-10-15 09:44:50 GMT 41.011047 0.619202 35,975 16 440 -64
2019-10-15 09:44:47 GMT 41.004562 0.616733 36,000 16 440 -128
2019-10-15 09:44:43 GMT 40.996693 0.613736 36,000 16 440 -128
2019-10-15 09:44:39 GMT 40.989532 0.610962 36,000 16 439 64
2019-10-15 09:44:36 GMT 40.983673 0.608704 36,025 16 439 64
2019-10-15 09:44:32 GMT 40.975204 0.605408 36,025 16 439 64
2019-10-15 09:44:27 GMT 40.966202 0.601938 36,000 16 441 128
2019-10-15 09:44:23 GMT 40.956844 0.598256 36,000 16 444 64
2019-10-15 09:44:15 GMT 40.941238 0.592163 36,000 16 450 0
2019-10-15 09:44:12 GMT 40.935848 0.590016 36,000 16 450 0
2019-10-15 09:44:04 GMT 40.919907 0.583862 36,000 16 458 64
2019-10-15 09:44:01 GMT 40.912899 0.581152 35,975 16 458 64
2019-10-15 09:43:55 GMT 40.900955 0.576538 36,025 16 461 -768
2019-10-15 09:43:51 GMT 40.891800 0.572937 36,075 16 461 -128
2019-10-15 09:43:46 GMT 40.882416 0.569336 36,075 16 461 64
2019-10-15 09:43:43 GMT 40.876217 0.566920 36,075 16 461 64
2019-10-15 09:43:40 GMT 40.870258 0.564610 36,075 16 461 64
2019-10-15 09:43:37 GMT 40.864113 0.562238 36,050 16 461 128
2019-10-15 09:43:30 GMT 40.848679 0.556335 36,025 16 462 192
2019-10-15 09:43:26 GMT 40.841629 0.553589 36,025 16 465 0
2019-10-15 09:43:22 GMT 40.831375 0.549683 36,025 16 464 64
2019-10-15 09:43:19 GMT 40.827057 0.548006 36,025 16 464 0
2019-10-15 09:43:16 GMT 40.820343 0.545410 36,025 16 465 -64
2019-10-15 09:43:12 GMT 40.814117 0.543030 36,025 16 465 0
2019-10-15 09:43:09 GMT 40.805191 0.539612 36,025 16 465 0
2019-10-15 09:43:05 GMT 40.798645 0.537109 36,025 16 464 192
2019-10-15 09:43:01 GMT 40.791321 0.534302 36,000 16 464 192
2019-10-15 09:42:58 GMT 40.776268 0.528530 35,975 16 464 128
2019-10-15 09:42:51 GMT 40.769943 0.526123 35,975 16 464 128
2019-10-15 09:42:47 GMT 40.762665 0.523315 35,975 16 465 64
2019-10-15 09:42:43 GMT 40.752945 0.519603 35,950 16 464 -128
2019-10-15 09:42:40 GMT 40.739777 0.514526 36,000 16 464 -128
2019-10-15 09:42:36 GMT 40.739777 0.514526 35,975 16 464 -128
2019-10-15 09:42:33 GMT 40.732681 0.511780 35,975 16 460 0
2019-10-15 09:42:30 GMT 40.725990 0.509241 35,975 16 462 -64
2019-10-15 09:42:24 GMT 40.712219 0.503967 36,000 16 461 -64
2019-10-15 09:42:19 GMT 40.703751 0.500732 36,000 16 460 0
2019-10-15 09:42:14 GMT 40.692848 0.496570 36,000 16 460 0
2019-10-15 09:42:06 GMT 40.677856 0.490827 36,025 16 460 128
2019-10-15 09:42:03 GMT 40.671387 0.488330 36,025 16 460 192
2019-10-15 09:41:58 GMT 40.660629 0.484253 36,000 16 461 128
2019-10-15 09:41:53 GMT 40.634796 0.474285 36,000 16 463 0
2019-10-15 09:41:46 GMT 40.634796 0.474285 36,000 16 463 -128
2019-10-15 09:41:40 GMT 40.624878 0.470520 36,000 16 463 -128
2019-10-15 09:41:36 GMT 40.616409 0.467224 36,025 16 463 -64
2019-10-15 09:41:31 GMT 40.604233 0.462524 36,025 16 462 0
2019-10-15 09:41:23 GMT 40.586475 0.455745 36,025 16 461 -64
2019-10-15 09:41:18 GMT 40.579723 0.453124 36,025 16 461 -64
2019-10-15 09:41:15 GMT 40.572647 0.450439 36,025 16 461 -128
2019-10-15 09:41:11 GMT 40.565201 0.447568 36,025 16 461 -128
2019-10-15 09:41:07 GMT 40.555611 0.443948 36,050 16 461 -64
2019-10-15 09:41:04 GMT 40.550259 0.441888 36,050 16 461 0
2019-10-15 09:41:01 GMT 40.544533 0.439703 36,050 16 461 0
2019-10-15 09:40:57 GMT 40.534943 0.436082 36,050 16 460 0
2019-10-15 09:40:51 GMT 40.522980 0.431525 36,050 16 460 0
2019-10-15 09:40:44 GMT 40.506500 0.425221 36,050 16 460 64
2019-10-15 09:40:41 GMT 40.500072 0.422786 36,025 16 461 64
2019-10-15 09:40:35 GMT 40.490810 0.419228 36,025 16 461 64
2019-10-15 09:40:31 GMT 40.483456 0.416482 36,025 16 461 0
2019-10-15 09:40:28 GMT 40.477615 0.414246 36,025 16 461 0
2019-10-15 09:40:23 GMT 40.465118 0.409485 36,025 16 461 -64
2019-10-15 09:40:19 GMT 40.458984 0.407104 36,025 16 461 0
2019-10-15 09:40:08 GMT 40.425034 0.394259 36,025 16 460 0
2019-10-15 09:39:59 GMT 40.416561 0.391076 36,025 16 461 64
2019-10-15 09:39:49 GMT 40.395218 0.382996 36,000 16 461 64
2019-10-15 09:39:37 GMT 40.361710 0.370300 36,000 16 461 -64
2019-10-15 09:39:28 GMT 40.353287 0.367065 36,000 16 461 0
2019-10-15 09:39:17 GMT 40.330765 0.358459 36,000 15 458 64
2019-10-15 09:39:09 GMT 40.312683 0.352173 36,000 13 456 64
2019-10-15 09:39:06 GMT 40.308746 0.350938 35,975 12 455 0
2019-10-15 09:38:59 GMT 40.293385 0.346381 35,975 12 455 -64
2019-10-15 09:38:56 GMT 40.288029 0.344883 36,000 12 455 -128
2019-10-15 09:38:52 GMT 40.277252 0.341858 36,025 12 452 0
2019-10-15 09:38:45 GMT 40.265682 0.338579 36,025 12 452 64
2019-10-15 09:38:36 GMT 40.245434 0.332898 36,000 12 452 -128
2019-10-15 09:38:33 GMT 40.241409 0.331787 36,000 12 451 -64
2019-10-15 09:38:27 GMT 40.228775 0.328186 36,000 12 452 -128
2019-10-15 09:38:24 GMT 40.221367 0.326094 36,025 12 453 0
2019-10-15 09:38:17 GMT 40.208565 0.322411 36,025 12 453 128
2019-10-15 09:38:14 GMT 40.202930 0.320851 36,000 12 454 128
2019-10-15 09:38:11 GMT 40.195862 0.318848 36,000 12 454 128
2019-10-15 09:38:08 GMT 40.188080 0.316606 36,000 12 455 0
2019-10-15 09:38:02 GMT 40.175510 0.313110 36,000 12 456 -64
2019-10-15 09:37:59 GMT 40.170486 0.311675 36,000 12 456 -64
2019-10-15 09:37:56 GMT 40.165512 0.310242 36,000 12 456 -64
2019-10-15 09:37:53 GMT 40.159592 0.308616 36,000 12 456 -64
2019-10-15 09:37:49 GMT 40.149162 0.305682 36,025 12 456 0
2019-10-15 09:37:40 GMT 40.129440 0.300110 36,000 12 456 64
2019-10-15 09:37:37 GMT 40.126308 0.299190 36,000 12 456 64
2019-10-15 09:37:33 GMT 40.116760 0.296509 36,000 12 456 0
2019-10-15 09:37:28 GMT 40.107056 0.293762 36,000 12 456 0
2019-10-15 09:37:22 GMT 40.094879 0.290344 36,000 12 456 128
2019-10-15 09:37:15 GMT 40.079384 0.286019 35,950 12 455 512
2019-10-15 09:37:11 GMT 40.073143 0.284271 35,925 11 454 640
2019-10-15 09:37:06 GMT 40.062950 0.281462 35,875 12 456 960
2019-10-15 09:37:01 GMT 40.051575 0.278320 35,775 12 456 1152
2019-10-15 09:36:57 GMT 40.042557 0.275818 35,700 12 457 1024
2019-10-15 09:36:53 GMT 40.035995 0.273972 35,650 12 457 1024
2019-10-15 09:36:50 GMT 40.029282 0.272095 35,600 12 457 1024
2019-10-15 09:36:47 GMT 40.021286 0.269852 35,525 12 457 768
2019-10-15 09:36:41 GMT 40.007584 0.265991 35,450 12 457 768
2019-10-15 09:36:38 GMT 40.003593 0.264858 35,425 12 457 1088
2019-10-15 09:36:33 GMT 39.993210 0.262024 35,250 12 458 1024
2019-10-15 09:36:29 GMT 39.986298 0.260071 35,275 12 458 1024
2019-10-15 09:36:24 GMT 39.974686 0.256805 35,175 12 458 1152
2019-10-15 09:36:19 GMT 39.965004 0.254121 35,000 12 458 704
2019-10-15 09:36:13 GMT 39.952789 0.250671 35,000 12 459 704
2019-10-15 09:36:09 GMT 39.943451 0.248108 34,950 12 458 960
2019-10-15 09:36:03 GMT 39.928783 0.244009 34,825 12 458 704
2019-10-15 09:35:58 GMT 39.921707 0.242004 34,800 12 458 640
2019-10-15 09:35:48 GMT 39.889870 0.233093 34,625 12 457 960
2019-10-15 09:35:41 GMT 39.883713 0.231310 34,575 12 457 960
2019-10-15 09:35:37 GMT 39.877121 0.229459 34,525 12 458 1152
2019-10-15 09:35:32 GMT 39.868469 0.227071 34,350 12 459 768
2019-10-15 09:35:27 GMT 39.856705 0.223787 34,350 12 459 768
2019-10-15 09:35:21 GMT 39.842293 0.219788 34,300 12 458 256
2019-10-15 09:35:17 GMT 39.835262 0.217834 34,300 12 457 256
2019-10-15 09:35:10 GMT 39.821899 0.214111 34,150 12 456 640
2019-10-15 09:35:07 GMT 39.812668 0.211547 34,200 12 455 832
2019-10-15 09:35:00 GMT 39.801132 0.208322 34,125 12 455 896
2019-10-15 09:34:55 GMT 39.790970 0.205516 34,050 12 454 768
2019-10-15 09:34:48 GMT 39.775677 0.201233 33,975 12 454 640
2019-10-15 09:34:45 GMT 39.770370 0.199784 33,925 12 453 896
2019-10-15 09:34:39 GMT 39.758358 0.196411 33,825 12 453 1152
2019-10-15 09:34:34 GMT 39.748627 0.193726 33,725 12 454 1344
2019-10-15 09:34:29 GMT 39.738190 0.190768 33,625 12 455 1344
2019-10-15 09:34:25 GMT 39.727913 0.187927 33,500 12 456 1344
2019-10-15 09:34:19 GMT 39.716766 0.184797 33,375 12 457 1344
2019-10-15 09:34:13 GMT 39.704315 0.181334 33,225 12 458 1536
2019-10-15 09:34:08 GMT 39.694427 0.178647 33,100 12 459 1728
2019-10-15 09:34:04 GMT 39.673634 0.172852 32,800 12 462 1152
2019-10-15 09:33:58 GMT 39.662460 0.169800 32,800 12 461 832
2019-10-15 09:33:53 GMT 39.662460 0.169800 32,750 12 462 1024
2019-10-15 09:33:49 GMT 39.653244 0.167236 32,625 12 462 896
2019-10-15 09:33:42 GMT 39.640392 0.163696 32,575 12 462 832
2019-10-15 09:33:39 GMT 39.634460 0.162048 32,550 12 461 832
2019-10-15 09:33:36 GMT 39.628475 0.160400 32,500 12 461 832
2019-10-15 09:33:32 GMT 39.618980 0.157776 32,325 12 461 1280
2019-10-15 09:33:28 GMT 39.610229 0.155334 31,875 12 461 1216
2019-10-15 09:33:21 GMT 39.596924 0.151659 32,225 12 461 1664
2019-10-15 09:33:16 GMT 39.586166 0.148674 31,875 12 465 1728
2019-10-15 09:33:11 GMT 39.575272 0.145629 31,900 12 464 1728
2019-10-15 09:33:07 GMT 39.564095 0.142517 31,775 12 465 1280
2019-10-15 09:33:01 GMT 39.552200 0.139240 31,550 12 466 1280
2019-10-15 09:32:57 GMT 39.546032 0.137573 31,600 12 466 1216
2019-10-15 09:32:53 GMT 39.530159 0.133179 31,150 12 466 1280
2019-10-15 09:32:50 GMT 39.530159 0.133179 31,450 12 466 1280
2019-10-15 09:32:46 GMT 39.519791 0.130284 31,275 12 467 704
2019-10-15 09:32:39 GMT 39.508118 0.127059 31,275 12 467 704
2019-10-15 09:32:36 GMT 39.501480 0.125244 31,250 12 466 640
2019-10-15 09:32:29 GMT 39.486740 0.121148 31,075 12 465 1088
2019-10-15 09:32:26 GMT 39.479229 0.119080 31,100 12 465 1024
2019-10-15 09:32:22 GMT 39.471828 0.117065 31,050 12 465 1216
2019-10-15 09:32:14 GMT 39.437668 0.107654 30,400 11 477 1984
2019-10-15 09:32:06 GMT 39.437668 0.107654 30,625 12 468 1472
2019-10-15 09:31:58 GMT 39.420456 0.102877 30,425 12 470 1344
2019-10-15 09:31:55 GMT 39.414383 0.101196 30,375 12 470 1472
2019-10-15 09:31:50 GMT 39.401443 0.097656 30,200 11 472 1920
2019-10-15 09:31:45 GMT 39.393997 0.095593 29,800 11 477 1856
2019-10-15 09:31:41 GMT 39.384659 0.093026 29,900 11 476 2112
2019-10-15 09:31:35 GMT 39.372574 0.089742 29,725 11 478 1408
2019-10-15 09:31:25 GMT 39.350281 0.083651 29,600 11 477 192
2019-10-15 09:31:13 GMT 39.304321 0.071053 28,425 12 474 960
2019-10-15 09:31:04 GMT 39.304321 0.071053 29,425 12 472 1088
2019-10-15 09:30:55 GMT 39.284042 0.065440 29,200 12 473 1856
2019-10-15 09:30:42 GMT 39.247513 0.055469 28,725 12 477 1024
2019-10-15 09:30:32 GMT 39.237160 0.052612 28,675 12 477 960
2019-10-15 09:30:23 GMT 39.216385 0.046931 28,500 12 476 768
2019-10-15 09:30:12 GMT 39.182510 0.037616 28,300 12 475 896
2019-10-15 09:30:03 GMT 39.172943 0.034989 28,225 12 475 896
2019-10-15 09:29:53 GMT 39.150696 0.028959 28,075 12 475 960
2019-10-15 09:29:42 GMT 39.116634 0.019653 27,825 12 473 896
2019-10-15 09:29:32 GMT 39.093109 0.013196 27,650 12 471 960
2019-10-15 09:29:22 GMT 39.078598 0.009255 27,600 12 471 960
2019-10-15 09:29:19 GMT 39.078598 0.009255 27,550 11 470 960
2019-10-15 09:29:11 GMT 39.061192 0.004578 27,375 11 468 960
2019-10-15 09:29:00 GMT 39.038910 -0.001493 27,250 11 468 896
2019-10-15 09:28:51 GMT 39.019455 -0.006807 27,100 12 466 896
2019-10-15 09:28:48 GMT 39.013058 -0.008484 27,050 11 464 1152
2019-10-15 09:28:39 GMT 38.994156 -0.013672 26,950 11 464 1088
2019-10-15 09:28:31 GMT 38.977211 -0.018188 26,750 10 462 1280
2019-10-15 09:28:28 GMT 38.972168 -0.019405 26,700 9 461 1280
2019-10-15 09:28:18 GMT 38.949738 -0.023644 26,500 5 458 1024
2019-10-15 09:28:11 GMT 38.931774 -0.025635 26,375 3 455 768
2019-10-15 09:28:08 GMT 38.928589 -0.025913 26,350 2 454 704
2019-10-15 09:27:54 GMT 38.889507 -0.027771 26,200 1 448 256
2019-10-15 09:27:47 GMT 38.884571 -0.027954 26,200 2 447 192
2019-10-15 09:27:39 GMT 38.866837 -0.028779 26,125 1 441 512
2019-10-15 09:27:36 GMT 38.862881 -0.028931 26,150 1 443 448
2019-10-15 09:27:29 GMT 38.849194 -0.029541 26,075 1 438 640
2019-10-15 09:27:26 GMT 38.841385 -0.029914 26,050 1 437 704
2019-10-15 09:27:18 GMT 38.826057 -0.030579 25,950 1 434 768
2019-10-15 09:27:15 GMT 38.820515 -0.030823 25,925 1 432 640
2019-10-15 09:27:08 GMT 38.804764 -0.031466 25,800 2 429 1152
2019-10-15 09:27:05 GMT 38.799381 -0.031738 25,750 2 429 1472
2019-10-15 09:26:58 GMT 38.785835 -0.032349 25,575 1 430 1792
2019-10-15 09:26:54 GMT 38.778625 -0.032660 25,325 1 430 1216
2019-10-15 09:26:48 GMT 38.765118 -0.033264 25,300 1 430 1152
2019-10-15 09:26:41 GMT 38.752396 -0.033795 25,225 2 429 768
2019-10-15 09:26:37 GMT 38.745209 -0.034093 25,175 1 426 704
2019-10-15 09:26:32 GMT 38.735504 -0.034511 25,100 1 425 896
2019-10-15 09:26:27 GMT 38.724564 -0.034989 25,000 2 423 1088
2019-10-15 09:26:22 GMT 38.715679 -0.035400 24,925 2 422 1280
2019-10-15 09:26:17 GMT 38.704369 -0.035889 24,775 2 421 1792
2019-10-15 09:26:12 GMT 38.695358 -0.036303 24,625 1 421 2112
2019-10-15 09:26:06 GMT 38.683868 -0.036780 24,475 1 421 2048
2019-10-15 09:26:01 GMT 38.674622 -0.037198 24,300 1 420 1600
2019-10-15 09:25:57 GMT 38.663864 -0.037676 24,175 1 417 960
2019-10-15 09:25:51 GMT 38.654232 -0.038086 24,075 2 413 704
2019-10-15 09:25:46 GMT 38.642780 -0.038574 24,050 2 412 768
2019-10-15 09:25:40 GMT 38.634121 -0.039001 23,975 2 411 1152
2019-10-15 09:25:35 GMT 38.623306 -0.039467 23,825 2 410 1664
2019-10-15 09:25:30 GMT 38.614014 -0.039885 23,675 2 410 1920
2019-10-15 09:25:26 GMT 38.603306 -0.040405 23,475 2 410 2240
2019-10-15 09:25:20 GMT 38.593201 -0.040894 23,275 2 410 2048
2019-10-15 09:25:15 GMT 38.583801 -0.041378 23,125 2 410 1984
2019-10-15 09:25:09 GMT 38.574207 -0.041870 22,975 2 410 1920
2019-10-15 09:25:06 GMT 38.569748 -0.042094 22,900 2 409 1920
2019-10-15 09:25:03 GMT 38.563408 -0.042419 22,775 2 409 1920
2019-10-15 09:24:58 GMT 38.554794 -0.042847 22,625 2 409 1984
2019-10-15 09:24:54 GMT 38.543949 -0.043396 22,425 2 410 2048
2019-10-15 09:24:46 GMT 38.530773 -0.043945 22,225 1 410 1728
2019-10-15 09:24:38 GMT 38.516922 -0.044542 22,025 2 409 1408
2019-10-15 09:24:35 GMT 38.511337 -0.044781 21,950 3 409 1472
2019-10-15 09:24:25 GMT 38.491791 -0.047408 21,725 12 413 1344
2019-10-15 09:24:15 GMT 38.473022 -0.054693 21,500 24 418 1408
2019-10-15 09:24:05 GMT 38.456337 -0.066467 21,250 36 422 1600
2019-10-15 09:23:54 GMT 38.440697 -0.083740 20,950 49 426 1728
2019-10-15 09:23:44 GMT 38.427940 -0.105164 20,600 59 429 1984
2019-10-15 09:23:33 GMT 38.418457 -0.128791 20,325 68 431 1536
2019-10-15 09:23:23 GMT 38.411602 -0.153092 20,075 70 429 1600
2019-10-15 09:23:13 GMT 38.405083 -0.177214 19,725 71 427 2048
2019-10-15 09:23:03 GMT 38.398335 -0.201874 19,350 70 426 2112
2019-10-15 09:22:49 GMT 38.386463 -0.245341 18,800 70 420 1920
2019-10-15 09:22:42 GMT 38.385086 -0.250406 18,725 70 420 1920
2019-10-15 09:22:31 GMT 38.378311 -0.275184 18,375 70 418 2048
2019-10-15 09:22:21 GMT 38.371674 -0.299436 18,075 70 416 2176
2019-10-15 09:22:11 GMT 38.365097 -0.323559 17,625 70 416 2496
2019-10-15 09:22:00 GMT 38.358440 -0.347622 17,300 70 415 1728
2019-10-15 09:21:50 GMT 38.351784 -0.371684 17,025 70 411 1728
2019-10-15 09:21:42 GMT 38.346954 -0.389255 16,725 70 406 1856
2019-10-15 09:21:39 GMT 38.344425 -0.398493 16,625 70 405 1792
2019-10-15 09:21:29 GMT 38.338623 -0.419467 16,375 70 402 1792
2019-10-15 09:21:21 GMT 38.333858 -0.436647 16,100 70 399 1664
2019-10-15 09:21:18 GMT 38.332275 -0.442439 16,025 70 398 1728
2019-10-15 09:21:10 GMT 38.327248 -0.460829 15,775 70 395 1984
2019-10-15 09:21:06 GMT 38.325302 -0.467796 15,675 70 395 2176
2019-10-15 09:20:59 GMT 38.320591 -0.484891 15,425 70 394 2240
2019-10-15 09:20:56 GMT 38.318684 -0.491877 15,250 70 393 2112
2019-10-15 09:20:50 GMT 38.315285 -0.504356 14,675 70 391 2752
2019-10-15 09:20:45 GMT 38.311661 -0.517409 14,800 70 391 2752
2019-10-15 09:20:39 GMT 38.308304 -0.529553 14,525 70 393 3072
2019-10-15 09:20:33 GMT 38.305115 -0.541194 14,250 70 394 2944
2019-10-15 09:20:28 GMT 38.302063 -0.552302 14,000 70 394 2816
2019-10-15 09:20:22 GMT 38.298199 -0.566274 13,750 70 393 2304
2019-10-15 09:20:19 GMT 38.296387 -0.572722 13,625 70 392 2112
2019-10-15 09:20:14 GMT 38.293396 -0.583561 13,475 70 391 1856
2019-10-15 09:20:11 GMT 38.291264 -0.591291 13,350 70 386 1408
2019-10-15 09:20:08 GMT 38.290192 -0.595113 13,350 70 386 1408
2019-10-15 09:20:05 GMT 38.287445 -0.605066 13,250 70 381 960
2019-10-15 09:19:58 GMT 38.283875 -0.617864 13,175 70 375 768
2019-10-15 09:19:54 GMT 38.281631 -0.625929 13,150 70 370 768
2019-10-15 09:19:48 GMT 38.277969 -0.639194 13,050 70 363 960
2019-10-15 09:19:41 GMT 38.274879 -0.650283 12,950 70 356 1024
2019-10-15 09:19:36 GMT 38.271248 -0.663240 12,825 70 347 1024
2019-10-15 09:19:31 GMT 38.269043 -0.671101 12,750 69 341 960
2019-10-15 09:19:28 GMT 38.267395 -0.676828 12,725 69 336 960
2019-10-15 09:19:25 GMT 38.265335 -0.683839 12,650 69 332 960
2019-10-15 09:19:21 GMT 38.263641 -0.689626 12,600 68 322 1024
2019-10-15 09:19:18 GMT 38.261795 -0.695960 12,550 69 325 1024
2019-10-15 09:19:14 GMT 38.259613 -0.703125 12,375 68 313 896
2019-10-15 09:19:09 GMT 38.257095 -0.711365 12,400 68 312 896
2019-10-15 09:19:06 GMT 38.255836 -0.715544 12,400 68 312 896
2019-10-15 09:19:02 GMT 38.253754 -0.722176 12,300 68 306 960
2019-10-15 09:18:57 GMT 38.250824 -0.731643 12,200 69 299 1088
2019-10-15 09:18:52 GMT 38.248436 -0.739666 12,125 70 294 1152
2019-10-15 09:18:48 GMT 38.246109 -0.747966 12,025 72 286 1216
2019-10-15 09:18:42 GMT 38.244141 -0.756362 11,900 77 279 1536
2019-10-15 09:18:37 GMT 38.242767 -0.764368 11,775 83 276 1984
2019-10-15 09:18:31 GMT 38.242172 -0.773484 11,525 92 274 3072
2019-10-15 09:18:25 GMT 38.242813 -0.782016 11,000 110 274 2880
2019-10-15 09:18:21 GMT 38.244572 -0.790060 10,975 115 273 2624
2019-10-15 09:18:15 GMT 38.251648 -0.803697 10,625 141 265 1664
2019-10-15 09:18:10 GMT 38.251648 -0.803697 10,675 137 267 1536
2019-10-15 09:18:05 GMT 38.256863 -0.809286 10,500 147 263 1856
2019-10-15 09:18:00 GMT 38.262634 -0.813164 10,050 177 254 2816
2019-10-15 09:17:56 GMT 38.266125 -0.814780 10,175 167 256 2560
2019-10-15 09:17:46 GMT 38.277695 -0.816553 9,725 188 253 3072
2019-10-15 09:17:39 GMT 38.286942 -0.814157 9,300 203 252 2944
2019-10-15 09:17:35 GMT 38.289734 -0.812755 9,175 208 251 2944
2019-10-15 09:17:26 GMT 38.299393 -0.804456 8,625 227 246 3712
2019-10-15 09:17:15 GMT 38.310581 -0.778298 7,625 262 245 2752
2019-10-15 09:17:05 GMT 38.310581 -0.778298 7,550 263 244 2752
2019-10-15 09:16:55 GMT 38.310768 -0.763848 7,125 279 239 2496
2019-10-15 09:16:44 GMT 38.308952 -0.749399 6,700 280 237 2816
2019-10-15 09:16:34 GMT 38.307186 -0.735666 6,175 280 234 2752
2019-10-15 09:16:24 GMT 38.305229 -0.721754 5,725 281 228 2368
2019-10-15 09:16:13 GMT 38.303322 -0.708081 5,350 281 218 2240
2019-10-15 09:16:03 GMT 38.301544 -0.695703 4,950 281 211 2560
2019-10-15 09:15:53 GMT 38.299782 -0.683003 4,425 280 205 3264
2019-10-15 09:15:42 GMT 38.298111 -0.670575 3,950 280 205 3392
2019-10-15 09:15:32 GMT 38.296417 -0.658303 3,400 281 205 3008
2019-10-15 09:15:22 GMT 38.294678 -0.645564 2,750 281 205 3392
2019-10-15 09:15:11 GMT 38.292938 -0.633266 2,175 280 208 2880
2019-10-15 09:15:01 GMT 38.291122 -0.620369 1,825 281 201 1472
2019-10-15 09:14:52 GMT 38.289776 -0.611174 1,700 281 182 1216
2019-10-15 09:14:49 GMT 38.289402 -0.608547 1,650 281 179 1216
2019-10-15 09:14:42 GMT 38.288223 -0.600274 1,500 281 169 1088
2019-10-15 09:14:39 GMT 38.287811 -0.597411 1,450 282 166 1024
2019-10-15 09:14:31 GMT 38.286610 -0.590037 1,300 282 155 1088
2019-10-15 09:14:28 GMT 38.286327 -0.588187 1,275 281 152 1280
2019-10-15 09:14:22 GMT 38.285477 -0.582334 1,100 281 148 1600

Making use of Plane Finder data

You are free to use the raw flight data, aircraft information and images provided in this report for your own purposes provided the data is correctly attributed to Plane Finder. We ask that you please credit Plane Finder and link to planefinder.net in close proximity to the content.

Optionally one of the following logos (no smaller then 150x24px) can be used and must link to planefinder.net

Embedding the Plane Finder map

You are welcome to embed the Plane Finder playback map on your website to offer visitors a more interactive experience. We suggest using the following HTML code:

<iframe src="//planefinder.net/data/report/VY1241-EC-MJC-7700-squawk-2019-10-15/map" width="800" height="600" seamless="seamless"></iframe>

Where our data comes from

Plane Finder has a global network of data feeds and antenna radars that receive data broadcast directly from aircraft. The primary technologies used are ADS-B and MLAT. We also show feeds from the FAA and a FLARM glider feed.

Click here to find out more about the Plane Finder network.

How we collect our data